Terminal Aerodrome Forecast
Issued by NWS Huntsville, AL

Home | Current Version | Previous Version | Text Only | Print | Product List | Glossary On
Versions: 1 2 3 4 5 6 7 8 9 10 11 12 13 14 15 16 17 18 19 20 21 22 23 24 25 26
000
FTUS44 KHUN 250539
TAFHSV
TAF
KHSV 250539Z 2506/2606 15010KT P6SM SCT050 SCT250 WS020/19035KT
     FM251500 15012G19KT P6SM VCSH SCT035 OVC050
     FM252000 16015G22KT P6SM VCTS BKN025CB OVC040
     FM260100 16010G15KT P6SM VCSH SCT040 BKN070=

USA.gov is the U.S. government's official web portal to all federal, state and local government web resources and services.